Data for 05/08/2013

Time Sea-Level Adjusted Pressure Absolute Pressure Temperature Relative Humidity Dew Point   
(mb) (inHg) (mb) (inHg) (C) (F) (%) (C) (F)
06:55 1022 30.18 851 25.13 11 51.8 54 2.1 35.8
11:50 1021 30.15 850 25.1 20.2 68.3 30 2 35.6
11:55 1021 30.15 850 25.1 19 66.2 28 0.4 32.8
12:00 1021 30.15 850 25.1 19.1 66.5 26 -0.7 30.7
06:55 1022 30.18 851 25.13 11 51.8 54 2.1 35.8
11:00 1021 30.15 851 25.13 17.7 63.9 36 2.7 36.9
11:05 1021 30.15 851 25.13 17.4 63.4 35 1.7 35.1
06:55 1022 30.18 851 25.13 11 51.8 54 2.1 35.8
10:00 1022 30.18 851 25.13 15.8 60.5 43 3.4 38.1
10:05 1022 30.18 851 25.13 15.5 60 40 2.1 35.8
06:55 1022 30.18 851 25.13 11 51.8 54 2.1 35.8
07:55 1022 30.18 851 25.13 13.1 55.7 45 1.4 34.5
08:00 1022 30.18 851 25.13 13.9 56.9 44 2 35.6
06:55 1022 30.18 851 25.13 11 51.8 54 2.1 35.8
07:30 1022 30.18 851 25.13 13 55.3 46 1.7 35
07:35 1022 30.18 851 25.13 12.7 54.8 47 1.7 35
06:55 1022 30.18 851 25.13 11 51.8 54 2.1 35.8
07:00 1022 30.18 851 25.13 11.4 52.6 52 1.9 35.4
04:00 1020 30.12 849 25.07 7.8 46 63 1.3 34.3
04:05 1020 30.12 849 25.07 7.6 45.8 64 1.2 34.2
03:30 1020 30.12 849 25.07 8.4 47.2 60 1.3 34.3
03:35 1020 30.12 849 25.07 8.4 47.1 61 1.4 34.6
01:35 1020 30.12 849 25.07 9 48.2 58 1.2 34.1
01:40 1020 30.12 849 25.07 9 48.3 58 1.3 34.3
01:05 1020 30.12 849 25.07 9.7 49.4 55 1.1 34.1
01:10 1020 30.12 849 25.07 10.1 50.2 54 1.2 34.2
00:05 1019 30.09 849 25.07 9.8 49.6 62 2.9 37.3
00:10 1019 30.09 849 25.07 9.5 49.1 64 3 37.4
00:15 1020 30.12 849 25.07 9.1 48.4 64 2.8 37
00:20 1020 30.12 849 25.07 9 48.2 61 2 35.6
00:25 1020 30.12 849 25.07 9.8 49.6 58 2 35.6
00:30 1020 30.12 849 25.07 10.1 50.2 56 1.7 35.1
00:35 1020 30.12 849 25.07 10.4 50.7 54 1.6 35
00:40 1020 30.12 849 25.07 10.3 50.6 55 1.7 35.1
00:45 1020 30.12 849 25.07 10.4 50.7 52 1 33.9
00:50 1020 30.12 849 25.07 10.6 51.1 52 1.2 34.1
00:55 1020 30.12 849 25.07 10.4 50.7 54 1.4 34.6
01:00 1020 30.12 849 25.07 9.8 49.7 56 1.4 34.6
01:05 1020 30.12 849 25.07 9.7 49.4 55 1.1 34.1
01:15 1020 30.12 849 25.07 10.1 50.3 53 1.1 34
01:20 1020 30.12 849 25.07 10 49.9 54 1.2 34.2
01:25 1020 30.12 849 25.07 9.7 49.4 56 1.4 34.6
01:30 1020 30.12 849 25.07 9.2 48.5 58 1.3 34.4
01:35 1020 30.12 849 25.07 9 48.2 58 1.2 34.1
01:45 1020 30.12 849 25.07 9.1 48.4 57 1.1 33.9
01:50 1020 30.12 849 25.07 9.6 49.2 55 1 33.8
01:55 1020 30.12 849 25.07 9.7 49.4 56 1.4 34.5
02:00 1020 30.12 849 25.07 9.4 48.8 59 1.7 35.1
02:05 1020 30.12 849 25.07 9 48.1 58 1.1 34
02:10 1020 30.12 849 25.07 9.2 48.6 57 1.1 33.9
02:15 1020 30.12 849 25.07 9.5 49 55 1 33.7
02:20 1020 30.12 849 25.07 9.5 49.2 56 1.2 34.2
02:25 1020 30.12 849 25.07 9.4 48.8 57 1.2 34.2
02:30 1020 30.12 849 25.07 9.3 48.7 56 1.1 34
02:35 1020 30.12 849 25.07 9.5 49.1 56 1.2 34.1
02:40 1020 30.12 849 25.07 9.7 49.5 54 1 33.8
02:45 1020 30.12 849 25.07 9.5 49.1 59 1.8 35.3
02:50 1020 30.12 849 25.07 8.4 47.2 62 1.5 34.7
02:55 1020 30.12 849 25.07 8 46.4 62 1.1 34
03:00 1020 30.12 849 25.07 8.5 47.2 59 1 33.7
03:05 1020 30.12 849 25.07 8.6 47.4 61 1.6 34.8
03:10 1020 30.12 849 25.07 8.3 46.9 61 1.1 34
03:15 1020 30.12 849 25.07 8.4 47 60 1.2 34.1
03:20 1020 30.12 849 25.07 8.3 46.9 62 1.4 34.5
03:25 1020 30.12 849 25.07 8.2 46.8 61 1.1 34
03:30 1020 30.12 849 25.07 8.4 47.2 60 1.3 34.3
03:40 1020 30.12 849 25.07 8.2 46.8 62 1.3 34.3
03:45 1020 30.12 849 25.07 8.3 46.9 61 1.1 34.1
03:50 1020 30.12 849 25.07 8.4 47 61 1.3 34.3
03:55 1020 30.12 849 25.07 8.1 46.5 63 1.4 34.5
04:00 1020 30.12 849 25.07 7.8 46 63 1.3 34.3
04:10 1020 30.12 849 25.07 7.8 46 63 1.1 33.9
04:15 1020 30.12 849 25.07 8.3 46.9 60 1.1 33.9
04:20 1020 30.12 849 25.07 8.6 47.4 60 1.2 34.2
04:25 1020 30.12 849 25.07 8.5 47.3 60 1.2 34.2
04:30 1020 30.12 849 25.07 8.2 46.8 62 1.4 34.5
04:35 1020 30.12 850 25.1 7.7 45.9 63 1.2 34.2
04:40 1020 30.12 850 25.1 7.4 45.4 64 1.1 34
04:45 1020 30.12 850 25.1 7.6 45.7 62 0.9 33.6
04:50 1021 30.15 850 25.1 8.1 46.6 60 0.8 33.5
04:55 1021 30.15 850 25.1 8.6 47.4 58 0.8 33.5
05:00 1021 30.15 850 25.1 8.9 48.1 58 1.2 34.1
05:05 1021 30.15 850 25.1 8.8 47.8 59 1.2 34.1
05:10 1021 30.15 850 25.1 8.5 47.3 60 1.2 34.1
05:15 1021 30.15 850 25.1 8.5 47.3 60 1.1 33.9
05:20 1021 30.15 850 25.1 8.5 47.3 60 1.2 34.2
05:25 1021 30.15 850 25.1 8.3 46.9 61 1.3 34.3
05:30 1021 30.15 850 25.1 7.9 46.2 63 1.4 34.4
05:35 1021 30.15 850 25.1 7.4 45.4 64 1.2 34.2
05:40 1021 30.15 850 25.1 7.3 45.2 64 1.1 34
05:45 1021 30.15 850 25.1 7.2 45 66 1.2 34.2
05:50 1021 30.15 850 25.1 7.1 44.7 66 1.2 34.1
05:55 1021 30.15 850 25.1 7 44.6 66 1.2 34.1
06:00 1021 30.15 850 25.1 7.3 45.1 65 1.1 33.9
06:05 1021 30.15 850 25.1 7.9 46.2 62 1.2 34.1
06:10 1021 30.15 850 25.1 8.5 47.3 60 1.2 34.2
06:15 1021 30.15 850 25.1 8.8 47.9 59 1.3 34.4
06:20 1021 30.15 850 25.1 8.8 47.8 60 1.6 34.8
06:25 1021 30.15 851 25.13 8.7 47.6 60 1.3 34.3
06:30 1021 30.15 851 25.13 9 48.3 58 1.3 34.4
06:35 1022 30.18 851 25.13 9.5 49 58 1.6 34.8
06:40 1022 30.18 851 25.13 9.7 49.5 59 2 35.6
06:45 1022 30.18 851 25.13 10.2 50.3 56 1.7 35.1
06:50 1022 30.18 851 25.13 10.6 51 56 2.2 36
06:55 1022 30.18 851 25.13 11 51.8 54 2.1 35.8
07:05 1022 30.18 851 25.13 11 51.8 53 1.9 35.4
07:10 1022 30.18 851 25.13 11.1 51.9 52 1.6 34.9
07:15 1022 30.18 851 25.13 11.3 52.4 51 1.7 35
07:20 1022 30.18 851 25.13 11.6 52.9 49 1.3 34.4
07:25 1022 30.18 851 25.13 12.5 54.5 46 1.3 34.4
07:30 1022 30.18 851 25.13 13 55.3 46 1.7 35
07:40 1022 30.18 851 25.13 13.2 55.7 45 1.4 34.5
07:45 1022 30.18 851 25.13 13.1 55.5 46 1.7 35
07:50 1022 30.18 851 25.13 12.6 54.7 47 1.7 35.1
07:55 1022 30.18 851 25.13 13.1 55.7 45 1.4 34.5
08:05 1022 30.18 851 25.13 14 57.2 43 1.7 35
08:10 1022 30.18 851 25.13 14.7 58.5 41 1.7 35
08:15 1022 30.18 851 25.13 15.1 59.2 41 2 35.6
08:20 1022 30.18 851 25.13 14.8 58.6 43 2.4 36.3
08:25 1022 30.18 851 25.13 14.7 58.4 41 1.7 35.1
08:30 1022 30.18 851 25.13 15.4 59.8 42 2.5 36.6
08:35 1022 30.18 851 25.13 14.9 58.8 46 3.5 38.3
08:40 1022 30.18 851 25.13 14.7 58.5 46 3.3 38
08:45 1022 30.18 851 25.13 14.8 58.6 47 3.6 38.4
08:50 1022 30.18 851 25.13 14.7 58.5 45 3.1 37.6
08:55 1022 30.18 851 25.13 15.2 59.3 44 3 37.5
09:00 1022 30.18 851 25.13 15.5 59.9 44 3.4 38.2
09:05 1022 30.18 851 25.13 15.6 60.1 42 2.9 37.2
09:10 1022 30.18 851 25.13 14.8 58.6 46 3.3 38
09:15 1022 30.18 851 25.13 14.9 58.7 45 3 37.4
09:20 1022 30.18 851 25.13 14.5 58.1 45 2.9 37.2
09:25 1022 30.18 851 25.13 14.5 58.2 44 2.5 36.5
09:30 1022 30.18 851 25.13 15.3 59.6 43 2.9 37.2
09:35 1022 30.18 851 25.13 15 58.9 46 3.5 38.3
09:40 1022 30.18 851 25.13 15.3 59.5 43 2.9 37.2
09:45 1022 30.18 851 25.13 16.1 61 40 2.5 36.4
09:50 1022 30.18 851 25.13 16.2 61.2 40 2.7 36.8
09:55 1022 30.18 851 25.13 16.8 62.2 41 3.6 38.5
10:00 1022 30.18 851 25.13 15.8 60.5 43 3.4 38.1
10:10 1022 30.18 851 25.13 16.2 61.2 39 2.4 36.3
10:15 1022 30.18 851 25.13 15.7 60.3 42 2.9 37.3
10:20 1022 30.18 851 25.13 15.9 60.6 40 2.5 36.6
10:25 1022 30.18 851 25.13 16.8 62.3 40 3.3 37.9
10:30 1022 30.18 851 25.13 16.9 62.4 39 3.1 37.6
10:35 1022 30.18 851 25.13 17.2 63 36 2.3 36.1
10:40 1022 30.18 851 25.13 17.1 62.8 36 2 35.6
10:45 1022 30.18 851 25.13 16.6 61.9 38 2.4 36.4
10:50 1021 30.15 851 25.13 17.3 63.1 36 2 35.6
10:55 1021 30.15 851 25.13 17.6 63.7 35 2 35.5
11:00 1021 30.15 851 25.13 17.7 63.9 36 2.7 36.9
11:10 1021 30.15 851 25.13 18.3 64.9 34 2.3 36.1
11:15 1021 30.15 850 25.1 19 66.2 31 1.5 34.8
11:20 1021 30.15 850 25.1 18 64.3 35 2.5 36.5
11:25 1021 30.15 850 25.1 18.6 65.4 32 1.5 34.7
11:30 1021 30.15 850 25.1 19.2 66.6 30 1.4 34.5
11:35 1021 30.15 850 25.1 19.1 66.3 29 0.8 33.4
11:40 1021 30.15 850 25.1 19.9 67.8 28 1.1 33.9
11:45 1021 30.15 850 25.1 20.3 68.6 29 1.7 35
11:50 1021 30.15 850 25.1 20.2 68.3 30 2 35.6
12:05 1021 30.15 850 25.1 20 68 25 -0.4 31.2
12:10 1021 30.15 850 25.1 20.2 68.3 23 -1.3 29.7
12:15 1021 30.15 850 25.1 20.5 68.9 20 -2.8 27
12:20 1021 30.15 850 25.1 20.2 68.3 23 -1.5 29.3
12:25 1021 30.15 850 25.1 20.1 68.2 22 -2 28.4
12:30 1021 30.15 850 25.1 20.1 68.2 21 -2.8 27
12:35 1021 30.15 850 25.1 20.4 68.7 23 -1.3 29.7
12:40 1021 30.15 850 25.1 20.1 68.3 19 -3.9 24.9
12:45 1021 30.15 850 25.1 20.2 68.3 20 -3.3 26.1
12:50 1021 30.15 850 25.1 20.4 68.7 20 -3.4 25.8
12:55 1020 30.12 850 25.1 21.3 70.3 17 -4.3 24.2
13:00 1021 30.15 850 25.1 20.7 69.2 18 -4.6 23.6
13:05 1021 30.15 850 25.1 20.5 69 17 -5 23
13:10 1020 30.12 850 25.1 20.6 69.1 18 -4.3 24.2
13:15 1020 30.12 850 25.1 20.8 69.4 18 -4.1 24.6
13:20 1020 30.12 850 25.1 20.5 68.8 19 -3.6 25.6
13:25 1020 30.12 850 25.1 20.6 69.1 18 -4.2 24.4
13:30 1020 30.12 850 25.1 20.5 68.8 18 -4.4 24
13:35 1020 30.12 849 25.07 20.8 69.5 17 -5 23
13:40 1020 30.12 849 25.07 20.4 68.8 19 -3.8 25.2
13:45 1020 30.12 849 25.07 20.2 68.3 20 -3.6 25.5
13:50 1020 30.12 850 25.1 20.8 69.4 18 -4.1 24.7
13:55 1020 30.12 849 25.07 20.5 68.9 19 -3.8 25.2
14:00 1020 30.12 849 25.07 20.5 69 20 -2.8 26.9
14:05 1020 30.12 849 25.07 21.2 70.1 19 -2.9 26.8
14:10 1020 30.12 849 25.07 21.2 70.2 19 -3.3 26
14:15 1020 30.12 849 25.07 20.9 69.6 19 -3.3 26
14:20 1020 30.12 849 25.07 20.8 69.5 19 -3.5 25.7
14:25 1020 30.12 849 25.07 20.6 69.1 19 -4 24.9
14:30 1020 30.12 849 25.07 21 69.8 18 -4 24.9
14:35 1020 30.12 849 25.07 21.2 70.2 17 -4.5 23.9
14:40 1020 30.12 849 25.07 21.3 70.4 16 -5.7 21.8
14:45 1020 30.12 849 25.07 21.7 71.1 15 -5.6 21.9
14:50 1020 30.12 849 25.07 21.9 71.4 17 -4.4 24
14:55 1020 30.12 849 25.07 21.3 70.4 16 -5.4 22.4
15:00 1020 30.12 849 25.07 21.3 70.4 16 -5.2 22.7
15:05 1020 30.12 849 25.07 20.9 69.5 17 -5.3 22.4
15:10 1020 30.12 849 25.07 21 69.8 18 -4.1 24.6
15:15 1020 30.12 849 25.07 20.9 69.6 18 -4 24.9
15:20 1020 30.12 849 25.07 20.9 69.7 17 -4.8 23.4
15:25 1020 30.12 849 25.07 21.2 70.1 18 -3.8 25.2
15:30 1020 30.12 849 25.07 21.1 70 17 -4.8 23.3
15:35 1020 30.12 849 25.07 21 69.7 17 -4.7 23.5
15:40 1020 30.12 849 25.07 20.8 69.5 17 -5.1 22.8
15:45 1020 30.12 849 25.07 20.9 69.6 17 -4.7 23.6
15:50 1020 30.12 849 25.07 21.3 70.4 17 -4.7 23.5
15:55 1020 30.12 849 25.07 21.4 70.5 16 -5.1 22.9
16:00 1020 30.12 849 25.07 21.2 70.2 17 -4.7 23.6
16:05 1020 30.12 849 25.07 20.9 69.7 18 -4.2 24.4
16:10 1020 30.12 849 25.07 21 69.8 17 -4.4 24
16:15 1020 30.12 849 25.07 21 69.7 17 -4.9 23.1
16:20 1020 30.12 849 25.07 20.9 69.5 17 -4.9 23.2
16:25 1020 30.12 849 25.07 21 69.8 18 -4.3 24.3
16:30 1020 30.12 849 25.07 21 69.8 18 -4.4 24.1
16:35 1020 30.12 849 25.07 20.8 69.4 18 -4.5 23.9
16:40 1020 30.12 849 25.07 20.7 69.2 17 -5 23.1
16:45 1020 30.12 849 25.07 20.8 69.4 17 -4.8 23.3
16:50 1020 30.12 849 25.07 20.5 69 18 -4.5 23.8
16:55 1020 30.12 849 25.07 20.6 69.1 18 -4.3 24.3
17:00 1020 30.12 849 25.07 20.6 69.2 18 -4.5 23.9
17:05 1020 30.12 849 25.07 20.9 69.6 18 -4.2 24.5
17:10 1020 30.12 849 25.07 20.6 69 18 -4.3 24.3
17:15 1020 30.12 849 25.07 20.4 68.7 19 -3.9 25
17:20 1020 30.12 849 25.07 20.3 68.5 19 -3.8 25.2
17:25 1020 30.12 849 25.07 20 68 20 -3.8 25.2
17:30 1020 30.12 849 25.07 20 67.9 20 -3.8 25.1
17:35 1020 30.12 849 25.07 19.9 67.9 20 -3.7 25.3
17:40 1020 30.12 849 25.07 20 68 20 -3.8 25.2
17:45 1020 30.12 849 25.07 19.8 67.6 20 -3.6 25.6
17:50 1020 30.12 849 25.07 19.7 67.4 20 -3.4 25.8
17:55 1020 30.12 849 25.07 19.6 67.3 21 -3.2 26.2
18:00 1020 30.12 849 25.07 19.4 66.9 21 -3.4 25.9
18:05 1020 30.12 849 25.07 19.2 66.5 21 -3.7 25.4
18:10 1020 30.12 849 25.07 19.1 66.4 21 -3.7 25.3
18:15 1020 30.12 849 25.07 19.1 66.3 21 -3.4 25.8
18:20 1020 30.12 849 25.07 19 66.3 21 -3.8 25.1
18:25 1020 30.12 849 25.07 18.8 65.9 21 -3.6 25.5
18:30 1020 30.12 849 25.07 18.7 65.7 22 -3.6 25.5
18:35 1020 30.12 849 25.07 18.6 65.4 22 -3.5 25.8
18:40 1020 30.12 849 25.07 18.5 65.2 21 -4 24.8
18:45 1020 30.12 849 25.07 18.4 65.1 22 -3.7 25.3
18:50 1020 30.12 849 25.07 18.3 64.9 22 -3.6 25.4
18:55 1020 30.12 849 25.07 18.2 64.8 22 -3.5 25.7
19:00 1020 30.12 849 25.07 18.1 64.5 23 -3.4 25.8
19:05 1020 30.12 849 25.07 17.9 64.2 23 -3.4 25.9
19:10 1020 30.12 849 25.07 17.7 63.9 23 -3.4 25.9
19:15 1020 30.12 849 25.07 17.6 63.7 24 -3.2 26.2
19:20 1020 30.12 849 25.07 17.5 63.5 24 -3.4 25.9
19:25 1020 30.12 849 25.07 17.3 63.1 24 -3.3 26
19:30 1020 30.12 849 25.07 17.1 62.7 25 -3.2 26.2
19:35 1020 30.12 849 25.07 16.9 62.4 25 -3.2 26.3
19:40 1020 30.12 849 25.07 16.8 62.2 25 -3.1 26.4
19:45 1020 30.12 849 25.07 16.6 61.9 26 -2.8 26.9
19:50 1020 30.12 849 25.07 16.3 61.4 27 -2.6 27.3
19:55 1020 30.12 849 25.07 16 60.9 27 -2.8 27
20:00 1020 30.12 849 25.07 15.8 60.4 28 -2.6 27.3
20:05 1020 30.12 850 25.1 15.7 60.2 28 -2.8 27
20:10 1020 30.12 850 25.1 15.7 60.3 28 -2.9 26.8
20:15 1020 30.12 850 25.1 15.8 60.4 28 -2.8 26.9
20:20 1020 30.12 850 25.1 15.7 60.2 28 -2.9 26.9
20:25 1021 30.15 850 25.1 15.6 60.1 28 -2.8 26.9
20:30 1021 30.15 850 25.1 15.6 60.1 28 -2.8 26.9
20:35 1021 30.15 850 25.1 15.6 60 28 -2.9 26.9
20:40 1021 30.15 850 25.1 15.6 60.2 28 -2.7 27.1
20:45 1021 30.15 850 25.1 15.5 59.9 29 -2.6 27.4
20:50 1021 30.15 850 25.1 15.4 59.6 29 -2.5 27.4
20:55 1021 30.15 850 25.1 15.2 59.4 29 -2.5 27.5
21:00 1021 30.15 850 25.1 15.1 59.2 29 -2.6 27.4
21:05 1021 30.15 850 25.1 15.1 59.1 30 -2.5 27.5
21:10 1021 30.15 850 25.1 15 59 29 -2.6 27.3
21:15 1021 30.15 850 25.1 15 58.9 30 -2.5 27.4
21:20 1021 30.15 850 25.1 14.9 58.9 30 -2.6 27.4
21:25 1021 30.15 850 25.1 14.9 58.7 30 -2.3 27.8
21:30 1021 30.15 850 25.1 14.7 58.4 31 -2.3 27.8
21:35 1021 30.15 850 25.1 14.6 58.3 31 -2.4 27.7
21:40 1021 30.15 850 25.1 14.5 58.2 31 -2.3 27.9
21:45 1021 30.15 850 25.1 14.5 58.1 31 -2.3 27.8
21:50 1021 30.15 850 25.1 14.7 58.4 31 -2.2 28
21:55 1021 30.15 850 25.1 14.7 58.4 31 -2.2 28.1
22:00 1021 30.15 850 25.1 14.6 58.3 32 -2 28.3
22:05 1021 30.15 850 25.1 14.4 58 32 -1.9 28.5
22:10 1021 30.15 850 25.1 14.2 57.5 33 -2 28.5
22:15 1021 30.15 850 25.1 14 57.2 33 -1.9 28.7
22:20 1021 30.15 850 25.1 13.6 56.5 34 -1.9 28.6
22:25 1021 30.15 850 25.1 13.4 56.1 35 -1.8 28.7
22:30 1021 30.15 850 25.1 13.5 56.3 34 -2 28.4
22:35 1021 30.15 850 25.1 13.7 56.6 34 -2 28.4
22:40 1021 30.15 850 25.1 13.9 57 33 -1.9 28.6
22:45 1021 30.15 850 25.1 13.9 57.1 34 -1.8 28.8
22:50 1021 30.15 850 25.1 13.8 56.8 35 -1.3 29.6
22:55 1021 30.15 850 25.1 13.2 55.7 38 -0.9 30.4
23:00 1021 30.15 850 25.1 12.6 54.8 39 -1 30.2
23:05 1021 30.15 850 25.1 12.5 54.5 38 -1.2 29.8
23:10 1021 30.15 850 25.1 12.7 54.8 38 -1.2 29.8
23:15 1021 30.15 850 25.1 12.6 54.7 39 -0.9 30.4
23:20 1021 30.15 850 25.1 12.2 54 40 -0.9 30.5
23:25 1021 30.15 850 25.1 12 53.6 40 -1 30.2
23:30 1021 30.15 850 25.1 12.1 53.8 40 -1.1 30
23:35 1021 30.15 850 25.1 12.1 53.8 40 -1 30.1
23:40 1021 30.15 850 25.1 12.1 53.8 40 -0.9 30.3
23:45 1021 30.15 850 25.1 12 53.7 41 -0.9 30.4
23:50 1021 30.15 850 25.1 12 53.6 40 -1.1 30.1
23:55 1021 30.15 850 25.1 12.1 53.8 40 -0.9 30.3
24:00 1021 30.15 850 25.1 12 53.6 41 -0.8 30.6